createdAt,value
2018-08-11T00:01:02.484Z,4.20
2018-08-11T00:03:31.407Z,3.65
2018-08-11T00:06:00.672Z,3.30
2018-08-11T00:08:29.574Z,4.58
2018-08-11T00:10:58.513Z,3.65
2018-08-11T00:13:27.713Z,3.33
2018-08-11T00:15:56.834Z,4.78
2018-08-11T00:18:26.154Z,3.92
2018-08-11T00:20:55.418Z,4.22
2018-08-11T00:23:24.641Z,3.55
2018-08-11T00:25:53.802Z,4.33
2018-08-11T00:28:23.063Z,5.08
2018-08-11T00:30:52.298Z,4.75
2018-08-11T00:33:21.615Z,4.00
2018-08-11T00:35:50.778Z,4.42
2018-08-11T00:38:20.124Z,4.97
2018-08-11T00:40:49.363Z,4.75
2018-08-11T00:43:18.884Z,6.22
2018-08-11T00:45:48.080Z,5.80
2018-08-11T00:48:17.298Z,6.97
2018-08-11T00:50:46.486Z,6.92
2018-08-11T00:53:15.874Z,4.90
2018-08-11T00:55:45.383Z,6.33
2018-08-11T00:58:14.685Z,6.17
2018-08-11T01:00:45.006Z,6.08
2018-08-11T01:03:14.499Z,7.17
2018-08-11T01:05:43.822Z,7.08
2018-08-11T01:08:12.984Z,6.35
2018-08-11T01:10:41.969Z,6.05
2018-08-11T01:13:10.904Z,6.97
2018-08-11T01:15:39.900Z,7.87
2018-08-11T01:18:08.873Z,6.70
2018-08-11T01:20:37.821Z,6.28
2018-08-11T01:23:06.753Z,6.58
2018-08-11T01:25:35.833Z,8.90
2018-08-11T01:28:05.108Z,7.40
2018-08-11T01:30:34.263Z,11.20
2018-08-11T01:33:03.616Z,9.13
2018-08-11T01:35:33.024Z,10.35
2018-08-11T01:38:02.222Z,10.78
2018-08-11T01:40:31.512Z,10.10
2018-08-11T01:43:00.728Z,10.30
2018-08-11T01:45:29.976Z,11.38
2018-08-11T01:47:59.301Z,10.72
2018-08-11T01:50:28.499Z,13.35
2018-08-11T01:52:57.720Z,10.93
2018-08-11T01:55:27.101Z,11.10
2018-08-11T01:57:56.331Z,12.07
2018-08-11T02:00:25.572Z,12.98
2018-08-11T02:02:54.672Z,13.22
2018-08-11T02:05:24.083Z,13.60
2018-08-11T02:07:53.485Z,12.10
2018-08-11T02:10:22.814Z,12.50
2018-08-11T02:12:51.972Z,10.03
2018-08-11T02:15:21.302Z,10.10
2018-08-11T02:17:50.557Z,9.35
2018-08-11T02:20:20.269Z,11.05
2018-08-11T02:22:49.992Z,10.80
2018-08-11T02:25:19.277Z,12.03
2018-08-11T02:27:48.652Z,13.13
2018-08-11T02:30:18.541Z,13.30
2018-08-11T02:32:47.898Z,9.60
2018-08-11T02:35:16.948Z,9.05
2018-08-11T02:37:45.957Z,9.63
2018-08-11T02:40:16.036Z,7.53
2018-08-11T02:42:45.397Z,7.60
2018-08-11T02:45:16.849Z,9.40
2018-08-11T02:47:46.444Z,8.25
2018-08-11T02:50:15.460Z,9.30
2018-08-11T02:52:44.371Z,9.98
2018-08-11T02:55:13.330Z,7.97
2018-08-11T02:57:42.652Z,9.35
2018-08-11T03:00:12.714Z,8.20
2018-08-11T03:02:42.066Z,9.23
2018-08-11T03:05:11.335Z,8.30
2018-08-11T03:07:40.510Z,8.43
2018-08-11T03:10:11.185Z,10.50
2018-08-11T03:12:40.925Z,10.20
2018-08-11T03:15:11.552Z,12.73
2018-08-11T03:17:41.231Z,10.75
2018-08-11T03:20:12.892Z,9.13
2018-08-11T03:22:42.079Z,10.48
2018-08-11T03:25:11.593Z,11.45
2018-08-11T03:27:40.756Z,11.03
2018-08-11T03:30:10.041Z,11.15
2018-08-11T03:32:39.448Z,11.50
2018-08-11T03:35:09.045Z,12.15
2018-08-11T03:37:38.153Z,12.58
2018-08-11T03:40:09.019Z,11.48
2018-08-11T03:42:38.044Z,11.85
2018-08-11T03:45:07.210Z,14.28
2018-08-11T03:47:36.132Z,12.75
2018-08-11T03:50:05.471Z,12.63
2018-08-11T03:52:34.548Z,13.08
2018-08-11T03:55:03.494Z,12.60
2018-08-11T03:57:32.570Z,14.87
2018-08-11T04:00:02.029Z,13.80
2018-08-11T04:02:31.208Z,12.53
2018-08-11T04:05:00.322Z,14.20
2018-08-11T04:07:29.560Z,13.20
2018-08-11T04:09:59.134Z,13.85
2018-08-11T04:12:28.314Z,14.18
2018-08-11T04:14:57.640Z,14.18
2018-08-11T04:17:31.972Z,14.03
2018-08-11T04:20:01.146Z,13.70
2018-08-11T04:22:30.312Z,12.33
2018-08-11T04:24:59.711Z,13.20
2018-08-11T04:27:28.912Z,13.38
2018-08-11T04:29:58.429Z,14.43
2018-08-11T04:32:27.664Z,13.50
2018-08-11T04:34:57.049Z,12.90
2018-08-11T04:37:26.480Z,12.13
2018-08-11T04:39:55.813Z,12.23
2018-08-11T04:42:25.133Z,12.33
2018-08-11T04:44:54.509Z,13.05
2018-08-11T04:47:23.756Z,14.33
2018-08-11T04:49:53.212Z,12.65
2018-08-11T04:52:22.403Z,13.35
2018-08-11T04:54:51.700Z,14.05
2018-08-11T04:57:21.131Z,12.10
2018-08-11T04:59:50.609Z,12.50
2018-08-11T05:02:19.561Z,13.05
2018-08-11T05:04:48.452Z,13.13
2018-08-11T05:07:17.492Z,11.75
2018-08-11T05:09:46.400Z,13.03
2018-08-11T05:12:15.540Z,14.35
2018-08-11T05:14:44.665Z,13.75
2018-08-11T05:17:13.833Z,13.78
2018-08-11T05:19:42.973Z,13.13
2018-08-11T05:22:12.234Z,13.95
2018-08-11T05:24:41.532Z,15.60
2018-08-11T05:27:10.837Z,14.38
2018-08-11T05:29:40.049Z,15.08
2018-08-11T05:32:09.320Z,14.80
2018-08-11T05:34:38.552Z,14.83
2018-08-11T05:37:07.820Z,14.58
2018-08-11T05:39:37.219Z,14.18
2018-08-11T05:42:06.561Z,13.32
2018-08-11T05:44:35.911Z,12.03
2018-08-11T05:47:05.141Z,12.82
2018-08-11T05:49:34.207Z,12.43
2018-08-11T05:52:03.416Z,12.35
2018-08-11T05:54:32.587Z,11.35
2018-08-11T05:57:01.702Z,11.63
2018-08-11T05:59:31.083Z,11.88
2018-08-11T06:02:00.224Z,10.60
2018-08-11T06:04:29.482Z,10.78
2018-08-11T06:06:58.782Z,12.50
2018-08-11T06:09:28.075Z,10.63
2018-08-11T06:11:57.336Z,10.93
2018-08-11T06:14:26.232Z,11.08
2018-08-11T06:16:55.168Z,12.93
2018-08-11T06:19:24.123Z,11.68
2018-08-11T06:21:53.041Z,11.20
2018-08-11T06:24:21.967Z,11.83
2018-08-11T06:26:51.108Z,12.13
2018-08-11T06:29:20.360Z,10.93
2018-08-11T06:31:49.567Z,10.70
2018-08-11T06:34:18.907Z,10.10
2018-08-11T06:36:48.781Z,9.88
2018-08-11T06:39:18.081Z,10.10
2018-08-11T06:41:47.197Z,11.33
2018-08-11T06:44:16.505Z,9.35
2018-08-11T06:46:45.840Z,9.70
2018-08-11T06:49:15.174Z,8.33
2018-08-11T06:51:44.416Z,8.80
2018-08-11T06:54:13.586Z,7.53
2018-08-11T06:56:42.703Z,7.60
2018-08-11T06:59:11.882Z,6.97
2018-08-11T07:01:41.199Z,6.93
2018-08-11T07:04:10.387Z,6.10
2018-08-11T07:06:39.721Z,6.10
2018-08-11T07:09:10.224Z,5.40
2018-08-11T07:11:39.563Z,6.10
2018-08-11T07:14:08.777Z,5.60
2018-08-11T07:16:37.918Z,5.40
2018-08-11T07:19:07.226Z,6.33
2018-08-11T07:21:36.484Z,6.07
2018-08-11T07:24:05.607Z,6.23
2018-08-11T07:26:34.554Z,6.50
2018-08-11T07:29:03.548Z,5.83
2018-08-11T07:31:32.465Z,6.20
2018-08-11T07:34:01.497Z,5.47
2018-08-11T07:36:30.504Z,5.20
2018-08-11T07:38:59.425Z,4.83
2018-08-11T07:41:28.405Z,4.43
2018-08-11T07:43:57.609Z,4.70
2018-08-11T07:46:26.910Z,4.93
2018-08-11T07:48:56.247Z,5.23
2018-08-11T07:51:25.509Z,5.67
2018-08-11T07:53:54.849Z,3.37
2018-08-11T07:56:24.968Z,3.93
2018-08-11T07:58:54.248Z,4.00
2018-08-11T08:01:24.561Z,4.40
2018-08-11T08:03:54.854Z,4.20
2018-08-11T08:06:24.079Z,3.50
2018-08-11T08:08:53.447Z,3.53
2018-08-11T08:11:22.676Z,3.57
2018-08-11T08:13:51.978Z,3.30
2018-08-11T08:16:21.545Z,2.60
2018-08-11T08:18:50.932Z,3.90
2018-08-11T08:21:20.065Z,3.63
2018-08-11T08:23:49.649Z,3.33
2018-08-11T08:26:19.036Z,3.83
2018-08-11T08:28:48.231Z,2.87
2018-08-11T08:31:17.627Z,2.43
2018-08-11T08:33:46.754Z,2.83
2018-08-11T08:36:16.743Z,2.60
2018-08-11T08:38:45.981Z,2.53
2018-08-11T08:41:14.909Z,3.40
2018-08-11T08:43:43.831Z,2.20
2018-08-11T08:46:12.792Z,1.90
2018-08-11T08:48:41.741Z,3.20
2018-08-11T08:51:10.636Z,3.13
2018-08-11T08:53:40.288Z,4.90
2018-08-11T08:56:09.488Z,2.83
2018-08-11T08:58:38.684Z,2.90
2018-08-11T09:01:07.949Z,3.27
2018-08-11T09:03:37.020Z,3.70
2018-08-11T09:06:06.180Z,4.30
2018-08-11T09:08:35.811Z,3.00
2018-08-11T09:11:05.084Z,3.07
2018-08-11T09:13:34.350Z,3.17
2018-08-11T09:16:03.776Z,3.87
2018-08-11T09:18:33.163Z,3.53
2018-08-11T09:21:02.289Z,3.40
2018-08-11T09:23:31.573Z,4.10
2018-08-11T09:26:00.779Z,3.20
2018-08-11T09:28:29.979Z,3.13
2018-08-11T09:30:59.194Z,3.40
2018-08-11T09:33:28.303Z,3.77
2018-08-11T09:35:57.468Z,4.57
2018-08-11T09:38:26.682Z,5.37
2018-08-11T09:40:55.930Z,3.30
2018-08-11T09:43:25.326Z,3.30
2018-08-11T09:45:54.635Z,3.50
2018-08-11T09:48:23.855Z,3.13
2018-08-11T09:50:53.112Z,4.47
2018-08-11T09:53:22.177Z,3.50
2018-08-11T09:55:51.112Z,3.23
2018-08-11T09:58:20.837Z,2.42
2018-08-11T10:00:53.908Z,2.67
2018-08-11T10:03:23.170Z,2.80
2018-08-11T10:05:52.169Z,2.77
2018-08-11T10:08:21.293Z,2.58
2018-08-11T10:10:50.460Z,2.55
2018-08-11T10:13:19.764Z,2.20
2018-08-11T10:15:49.069Z,3.15
2018-08-11T10:18:18.372Z,2.70
2018-08-11T10:20:47.478Z,2.60
2018-08-11T10:23:16.641Z,2.33
2018-08-11T10:25:45.867Z,2.50
2018-08-11T10:28:15.026Z,3.00
2018-08-11T10:30:44.247Z,1.65
2018-08-11T10:33:13.743Z,2.60
2018-08-11T10:35:42.966Z,2.10
2018-08-11T10:38:12.128Z,2.62
2018-08-11T10:40:41.258Z,2.40
2018-08-11T10:43:10.411Z,1.80
2018-08-11T10:45:39.920Z,2.60
2018-08-11T10:48:09.217Z,2.87
2018-08-11T10:50:39.417Z,2.45
2018-08-11T10:53:08.659Z,1.82
2018-08-11T10:55:38.481Z,2.20
2018-08-11T10:58:07.667Z,4.42
2018-08-11T11:00:36.939Z,6.75
2018-08-11T11:03:07.106Z,1.90
2018-08-11T11:05:36.231Z,1.82
2018-08-11T11:08:05.524Z,5.53
2018-08-11T11:10:34.444Z,1.70
2018-08-11T11:13:03.393Z,1.90
2018-08-11T11:15:32.298Z,2.00
2018-08-11T11:18:01.272Z,1.67
2018-08-11T11:20:30.490Z,2.00
2018-08-11T11:22:59.609Z,1.65
2018-08-11T11:25:29.776Z,1.75
2018-08-11T11:27:58.997Z,1.60
2018-08-11T11:30:28.115Z,2.35
2018-08-11T11:32:57.375Z,1.72
2018-08-11T11:35:26.534Z,2.70
2018-08-11T11:37:55.654Z,2.00
2018-08-11T11:40:24.813Z,1.95
2018-08-11T11:42:54.180Z,1.65
2018-08-11T11:45:23.612Z,1.90
2018-08-11T11:47:52.780Z,1.45
2018-08-11T11:50:22.139Z,1.95
2018-08-11T11:52:51.272Z,1.70
2018-08-11T11:55:20.572Z,2.10
2018-08-11T11:57:50.153Z,1.65
2018-08-11T12:00:19.610Z,1.45
2018-08-11T12:02:48.795Z,2.10
2018-08-11T12:05:17.984Z,1.65
2018-08-11T12:07:47.201Z,1.47
2018-08-11T12:10:16.382Z,1.72
2018-08-11T12:12:45.661Z,2.20
2018-08-11T12:15:14.819Z,1.45
2018-08-11T12:17:44.058Z,2.52
2018-08-11T12:20:13.016Z,1.62
2018-08-11T12:22:41.961Z,1.65
2018-08-11T12:25:10.936Z,1.60
2018-08-11T12:27:39.925Z,1.70
2018-08-11T12:30:10.113Z,1.60
2018-08-11T12:32:39.140Z,1.50
2018-08-11T12:35:08.613Z,1.37
2018-08-11T12:37:37.957Z,1.55
2018-08-11T12:40:07.208Z,1.60
2018-08-11T12:42:36.296Z,1.65
2018-08-11T12:45:05.948Z,1.57
2018-08-11T12:47:35.311Z,1.30
2018-08-11T12:50:04.738Z,2.15
2018-08-11T12:52:33.808Z,1.20
2018-08-11T12:55:03.148Z,1.25
2018-08-11T12:57:32.312Z,1.30
2018-08-11T13:00:01.537Z,1.00
2018-08-11T13:02:31.292Z,1.40
2018-08-11T13:05:00.498Z,1.80
2018-08-11T13:07:29.722Z,3.10
2018-08-11T13:09:58.993Z,1.40
2018-08-11T13:12:28.582Z,1.32
2018-08-11T13:14:58.004Z,1.30
2018-08-11T13:17:27.234Z,1.92
2018-08-11T13:19:56.492Z,1.63
2018-08-11T13:22:25.829Z,1.60
2018-08-11T13:24:54.992Z,1.60
2018-08-11T13:27:24.318Z,2.33
2018-08-11T13:29:53.518Z,1.47
2018-08-11T13:32:22.453Z,1.10
2018-08-11T13:34:51.373Z,1.40
2018-08-11T13:37:20.925Z,1.40
2018-08-11T13:39:51.765Z,0.90
2018-08-11T13:42:21.131Z,1.40
2018-08-11T13:44:50.047Z,1.25
2018-08-11T13:47:19.473Z,1.55
2018-08-11T13:49:48.689Z,2.10
2018-08-11T13:52:17.871Z,1.57
2018-08-11T13:54:47.011Z,2.00
2018-08-11T13:57:16.275Z,1.60
2018-08-11T13:59:45.460Z,1.40
2018-08-11T14:02:14.756Z,1.55
2018-08-11T14:04:43.989Z,1.57
2018-08-11T14:07:13.176Z,1.50
2018-08-11T14:09:42.504Z,1.52
2018-08-11T14:12:11.741Z,1.25
2018-08-11T14:14:40.940Z,1.12
2018-08-11T14:17:10.236Z,1.65
2018-08-11T14:19:39.533Z,1.02
2018-08-11T14:22:08.866Z,1.77
2018-08-11T14:24:38.040Z,1.20
2018-08-11T14:27:07.261Z,1.37
2018-08-11T14:29:36.408Z,1.10
2018-08-11T14:32:05.796Z,1.10
2018-08-11T14:34:34.955Z,1.17
2018-08-11T14:37:04.315Z,1.20
2018-08-11T14:39:33.712Z,1.00
2018-08-11T14:42:02.952Z,1.30
2018-08-11T14:44:32.272Z,1.62
2018-08-11T14:47:01.410Z,2.10
2018-08-11T14:49:30.387Z,1.50
2018-08-11T14:51:59.300Z,1.10
2018-08-11T14:54:28.227Z,1.25
2018-08-11T14:56:57.166Z,0.80
2018-08-11T14:59:26.108Z,1.02
2018-08-11T15:01:54.997Z,1.77
2018-08-11T15:04:24.164Z,1.20
2018-08-11T15:06:53.329Z,0.90
2018-08-11T15:09:22.543Z,1.15
2018-08-11T15:11:51.825Z,1.07
2018-08-11T15:14:21.119Z,1.35
2018-08-11T15:16:50.425Z,1.15
2018-08-11T15:19:19.870Z,0.85
2018-08-11T15:21:49.003Z,1.12
2018-08-11T15:24:18.155Z,1.20
2018-08-11T15:26:47.444Z,1.10
2018-08-11T15:29:16.723Z,1.30
2018-08-11T15:31:45.951Z,1.40
2018-08-11T15:34:15.307Z,1.30
2018-08-11T15:36:44.770Z,1.95
2018-08-11T15:39:14.561Z,1.70
2018-08-11T15:41:43.711Z,2.95
2018-08-11T15:44:13.009Z,2.27
2018-08-11T15:46:42.251Z,3.20
2018-08-11T15:49:11.596Z,2.40
2018-08-11T15:51:40.940Z,2.35
2018-08-11T15:54:10.213Z,3.87
2018-08-11T15:56:39.384Z,3.30
2018-08-11T15:59:08.686Z,2.92
2018-08-11T16:01:37.788Z,2.70
2018-08-11T16:04:06.756Z,2.75
2018-08-11T16:06:35.695Z,2.37
2018-08-11T16:09:06.580Z,2.60
2018-08-11T16:11:35.510Z,2.15
2018-08-11T16:14:05.242Z,1.70
2018-08-11T16:16:34.176Z,2.10
2018-08-11T16:19:03.396Z,1.80
2018-08-11T16:21:32.671Z,2.05
2018-08-11T16:24:01.871Z,2.33
2018-08-11T16:26:30.976Z,1.82
2018-08-11T16:29:00.222Z,1.55
2018-08-11T16:31:29.464Z,1.10
2018-08-11T16:34:01.043Z,1.75
2018-08-11T16:36:30.365Z,1.55
2018-08-11T16:38:59.505Z,2.62
2018-08-11T16:41:28.734Z,1.70
2018-08-11T16:43:57.897Z,1.52
2018-08-11T16:46:27.229Z,1.65
2018-08-11T16:48:56.394Z,1.80
2018-08-11T16:51:31.194Z,1.62
2018-08-11T16:54:00.626Z,1.70
2018-08-11T16:56:29.993Z,1.77
2018-08-11T16:58:59.073Z,2.00
2018-08-11T17:01:28.209Z,1.90
2018-08-11T17:03:57.294Z,1.25
2018-08-11T17:06:26.420Z,1.52
2018-08-11T17:08:56.657Z,1.65
2018-08-11T17:11:25.747Z,1.90
2018-08-11T17:13:54.914Z,1.42
2018-08-11T17:16:24.295Z,1.90
2018-08-11T17:18:53.300Z,1.37
2018-08-11T17:21:22.224Z,1.47
2018-08-11T17:23:51.159Z,2.37
2018-08-11T17:26:20.952Z,1.95
2018-08-11T17:28:49.954Z,1.62
2018-08-11T17:31:18.934Z,2.10
2018-08-11T17:33:48.195Z,2.15
2018-08-11T17:36:17.362Z,2.08
2018-08-11T17:38:46.616Z,2.80
2018-08-11T18:16:19.743Z,1.95
2018-08-11T18:18:49.786Z,4.45
2018-08-11T18:21:19.000Z,1.92
2018-08-11T18:27:09.491Z,2.20
2018-08-11T18:29:38.803Z,2.20
2018-08-11T18:32:07.956Z,2.50
2018-08-11T18:34:37.180Z,3.85
2018-08-11T18:37:06.448Z,2.05
2018-08-11T18:39:35.679Z,2.52
2018-08-11T18:42:05.049Z,2.27
2018-08-11T18:44:34.352Z,2.65
2018-08-11T18:47:03.746Z,2.72
2018-08-11T18:49:32.916Z,2.62
2018-08-11T18:52:02.103Z,2.98
2018-08-11T18:54:31.306Z,2.70
2018-08-11T18:57:00.526Z,2.85
2018-08-11T18:59:29.483Z,3.40
2018-08-11T19:01:58.354Z,2.77
2018-08-11T19:04:27.287Z,2.40
2018-08-11T19:06:56.196Z,3.65
2018-08-11T19:09:25.200Z,2.10
2018-08-11T19:11:54.157Z,3.20
2018-08-11T19:14:23.268Z,4.40
2018-08-11T19:16:52.434Z,3.30
2018-08-11T19:19:21.738Z,3.30
2018-08-11T19:21:50.944Z,3.22
2018-08-11T19:24:20.383Z,4.22
2018-08-11T19:26:49.757Z,3.70
2018-08-11T19:29:18.906Z,4.10
2018-08-11T19:31:48.555Z,3.58
2018-08-11T19:34:17.739Z,3.25
2018-08-11T19:36:47.730Z,4.05
2018-08-11T19:39:17.544Z,3.90
2018-08-11T19:41:46.764Z,3.65
2018-08-11T19:44:16.076Z,4.83
2018-08-11T19:46:45.258Z,3.90
2018-08-11T19:49:14.647Z,3.87
2018-08-11T19:51:44.066Z,3.65
2018-08-11T19:54:13.457Z,2.95
2018-08-11T19:56:42.782Z,2.62
2018-08-11T19:59:12.033Z,3.22
2018-08-11T20:01:41.215Z,2.80
2018-08-11T20:04:13.416Z,2.90
2018-08-11T20:06:43.660Z,6.05
2018-08-11T20:09:13.367Z,5.17
2018-08-11T20:11:42.328Z,4.87
2018-08-11T20:14:11.333Z,3.65
2018-08-11T20:16:40.287Z,4.72
2018-08-11T20:19:09.340Z,3.27
2018-08-11T20:21:38.268Z,5.10
2018-08-11T20:24:07.350Z,4.67
2018-08-11T20:26:36.555Z,4.10
2018-08-11T20:29:05.658Z,4.05
2018-08-11T20:31:34.764Z,3.35
2018-08-11T20:34:04.080Z,3.72
2018-08-11T20:36:33.990Z,3.50
2018-08-11T20:39:03.535Z,3.50
2018-08-11T20:41:32.783Z,4.40
2018-08-11T20:44:02.983Z,4.60
2018-08-11T20:46:32.186Z,4.37
2018-08-11T20:49:01.251Z,4.83
2018-08-11T20:51:30.502Z,3.12
2018-08-11T20:54:00.457Z,3.30
2018-08-11T20:56:29.853Z,3.55
2018-08-11T20:58:59.190Z,4.22
2018-08-11T21:01:28.322Z,3.87
2018-08-11T21:03:58.246Z,4.70
2018-08-11T21:06:27.753Z,3.80
2018-08-11T21:08:57.131Z,3.30
2018-08-11T21:11:26.359Z,3.65
2018-08-11T21:13:55.665Z,3.77
2018-08-11T21:16:24.883Z,4.10
2018-08-11T21:18:54.098Z,4.05
2018-08-11T21:21:23.971Z,3.52
2018-08-11T21:23:53.295Z,4.20
2018-08-11T21:26:22.505Z,3.27
2018-08-11T21:28:51.544Z,3.62
2018-08-11T21:31:20.504Z,4.15
2018-08-11T21:33:49.399Z,3.60
2018-08-11T21:36:18.721Z,3.85
2018-08-11T21:38:47.938Z,4.17
2018-08-11T21:41:18.933Z,4.45
2018-08-11T21:43:48.291Z,4.25
2018-08-11T21:46:24.139Z,3.92
2018-08-11T21:48:54.850Z,4.40
2018-08-11T21:51:24.237Z,4.50
2018-08-11T21:53:53.782Z,5.35
2018-08-11T21:56:23.189Z,5.20
2018-08-11T21:58:52.365Z,4.97
2018-08-11T22:01:21.667Z,4.53
2018-08-11T22:03:50.874Z,4.03
2018-08-11T22:06:20.200Z,5.20
2018-08-11T22:08:49.457Z,5.10
2018-08-11T22:11:18.779Z,4.00
2018-08-11T22:13:47.894Z,4.35
2018-08-11T22:16:17.024Z,4.20
2018-08-11T22:18:46.250Z,4.03
2018-08-11T22:21:15.353Z,3.65
2018-08-11T22:23:44.539Z,3.47
2018-08-11T22:26:13.613Z,4.55
2018-08-11T22:28:42.734Z,4.40
2018-08-11T22:31:12.675Z,4.30
2018-08-11T22:33:41.941Z,3.60
2018-08-11T22:36:11.062Z,4.20
2018-08-11T22:38:40.163Z,3.70
2018-08-11T22:41:09.163Z,3.58
2018-08-11T22:43:38.082Z,3.35
2018-08-11T22:46:07.480Z,3.90
2018-08-11T22:48:36.427Z,3.50
2018-08-11T22:51:05.893Z,6.10
2018-08-11T22:53:38.009Z,4.22
2018-08-11T22:56:07.647Z,4.50
2018-08-11T22:58:36.979Z,3.47
2018-08-11T23:01:06.154Z,4.05
2018-08-11T23:03:36.615Z,4.15
2018-08-11T23:06:06.075Z,4.20
2018-08-11T23:08:35.264Z,4.30
2018-08-11T23:11:04.930Z,3.60
2018-08-11T23:13:34.219Z,3.72
2018-08-11T23:16:03.575Z,4.22
2018-08-11T23:18:32.924Z,4.37
2018-08-11T23:21:02.325Z,3.75
2018-08-11T23:23:32.251Z,4.12
2018-08-11T23:26:01.527Z,4.55
2018-08-11T23:28:30.885Z,4.87
2018-08-11T23:31:00.090Z,4.35
2018-08-11T23:33:30.214Z,4.25
2018-08-11T23:35:59.377Z,8.10
2018-08-11T23:38:28.618Z,5.05
2018-08-11T23:40:57.872Z,5.03
2018-08-11T23:43:27.116Z,5.53
2018-08-11T23:45:56.235Z,5.60
2018-08-11T23:48:25.364Z,7.03
2018-08-11T23:50:54.884Z,3.98
2018-08-11T23:53:23.778Z,4.22
2018-08-11T23:55:52.680Z,4.85
2018-08-11T23:58:21.670Z,4.25
